• Join FlightAware (Why Join?)
  • Login
  • US Flag 
09:17PM EDT


 

Airport Tracker/Info


-or-


 

Live Flight TrackerFlight Track Log ✈ SWA1319 ✈ 16-Apr-2013 ✈ KPDX - KOAK

Flight Track Log - Related Links

Times and Time Zones

All times are in EDT time to prevent confusion due to time zone crossing. See the SWA1319 flight status page for this flight to view local times or setup timezone preferences in your user account.

Time Position Orientation Groundspeed Altitude Reporting Facility
EDT Latitude Longitude Course Direction KTS MPH feet Rate Location/Type
09:42PM 45.5728 -122.5139 103° East 171 197 2,200  Level Seattle Center
09:43PM 45.5525 -122.4589 118° Southeast 212 244 4,200 2,580 Climbing Seattle Center
09:44PM 45.4694 -122.4533 177° South 248 285 7,400 2,880 Climbing Seattle Center
09:45PM 45.3906 -122.4475 177° South 279 321 10,100 2,340 Climbing Seattle Center
09:46PM 45.3092 -122.4808 196° South 318 366 12,200 2,280 Climbing Seattle Center
09:47PM 45.2394 -122.5750 224° Southwest 345 397 14,700 2,160 Climbing Seattle Center
09:48PM 45.1658 -122.6808 225° Southwest 376 433 16,700 1,920 Climbing Seattle Center
09:49PM 45.0747 -122.7633 213° Southwest 391 450 18,700 1,680 Climbing Seattle Center
09:50PM 44.9567 -122.8006 193° South 427 491 20,200 1,740 Climbing Seattle Center
09:51PM 44.8328 -122.8386 192° South 447 514 22,300 1,800 Climbing Seattle Center
09:52PM 44.7050 -122.8783 192° South 462 532 23,900 1,560 Climbing Seattle Center
09:53PM 44.5714 -122.9208 193° South 484 557 25,500 1,440 Climbing Seattle Center
09:54PM 44.4322 -122.9414 186° South 501 577 26,900 1,380 Climbing Seattle Center
09:55PM 44.2917 -122.9364 179° South 513 590 28,300 1,320 Climbing Seattle Center
09:56PM 44.1447 -122.9322 179° South 519 597 29,700 1,260 Climbing Seattle Center
09:57PM 43.9953 -122.9267 178° South 524 603 30,900 1,320 Climbing Seattle Center
09:58PM 43.8453 -122.9231 179° South 531 611 32,400 1,380 Climbing Seattle Center
09:59PM 43.6969 -122.9192 179° South 532 612 33,800 1,260 Climbing Seattle Center
10:00PM 43.5511 -122.9131 178° South 526 605 35,000 540 Climbing Seattle Center
10:01PM 43.4033 -122.9078 179° South 529 609 35,000  Level Seattle Center
10:02PM 43.2575 -122.9028 179° South 524 603 35,000  Level Seattle Center
10:03PM 43.1111 -122.8994 179° South 524 603 35,000  Level Seattle Center
10:04PM 42.9656 -122.8936 178° South 524 603 35,000  Level Seattle Center
10:05PM 42.8192 -122.8903 179° South 525 604 35,000  Level Seattle Center
10:06PM 42.6667 -122.8853 179° South 524 603 35,000  Level Seattle Center
10:07PM 42.5225 -122.8808 179° South 521 600 35,000  Level Seattle Center
10:08PM 42.3769 -122.8794 180° South 523 602 35,000  Level Seattle Center
10:09PM 42.2333 -122.8747 179° South 521 600 35,000  Level Seattle Center
10:10PM 42.0875 -122.8714 179° South 523 602 35,000  Level Seattle Center
10:11PM 41.9153 -122.8664 179° South 521 600 35,000  Level Seattle Center
10:12PM 41.7714 -122.8639 179° South 520 598 35,000  Level Seattle Center
10:13PM 41.6286 -122.8594 179° South 518 596 35,000  Level Seattle Center
10:14PM 41.4844 -122.8547 179° South 518 596 35,000  Level Seattle Center
10:15PM 41.3386 -122.8411 176° South 516 594 35,000  Level Seattle Center
10:16PM 41.1939 -122.8272 176° South 520 598 35,000  Level Seattle Center
10:17PM 41.1083 -122.8192 176° South 519 597 35,000  Level Oakland Center
10:18PM 40.9644 -122.8072 176° South 518 596 35,000  Level Oakland Center
10:19PM 40.7917 -122.7922 176° South 520 598 35,000  Level Oakland Center
10:20PM 40.6472 -122.7794 176° South 521 600 35,000  Level Oakland Center
10:21PM 40.5047 -122.7667 176° South 518 596 35,000 -360 Level Oakland Center
10:22PM 40.3622 -122.7544 176° South 518 596 34,300 -840 Descending Oakland Center
10:23PM 40.2206 -122.7419 176° South 516 594 33,300 -660 Descending Oakland Center
10:24PM 40.0747 -122.7294 176° South 529 609 33,000 -180 Descending Oakland Center
10:25PM 39.9278 -122.7178 177° South 535 616 33,000  Level Oakland Center
10:26PM 39.7811 -122.7047 176° South 533 613 33,000 -60 Level Oakland Center
10:27PM 39.6350 -122.6922 176° South 529 609 32,900 -1,440 Descending Oakland Center
10:28PM 39.4547 -122.6775 176° South 541 623 30,200 -2,580 Descending Oakland Center
10:29PM 39.3050 -122.6636 176° South 540 621 27,800 -2,220 Descending Oakland Center
10:30PM 39.1814 -122.6539 177° South 524 603 25,800 -2,340 Descending Oakland Center
10:31PM 39.0119 -122.6386 176° South 508 585 23,100 -2,400 Descending Oakland Center
10:32PM 38.8917 -122.6275 176° South 495 570 21,000 -2,100 Descending Oakland Center
10:33PM 38.7594 -122.6186 177° South 478 550 18,900 -2,040 Descending Oakland Center
10:34PM 38.6344 -122.6064 176° South 453 521 16,900 -2,100 Descending Oakland Center
10:35PM 38.5158 -122.5875 173° South 430 495 14,700 -2,220 Descending Oakland Center
10:36PM 38.3853 -122.5583 170° South 397 457 12,400 -1,980 Descending Oakland Center
10:37PM 38.2817 -122.5594 180° South 370 426 10,700 -1,320 Descending Oakland Center
10:38PM 38.1886 -122.5586 180° South 337 388 9,800 -1,380 Descending Oakland Center
10:39PM 38.1069 -122.5583 180° South 304 350 8,000 -1,380 Descending Oakland Center
10:40PM 38.0258 -122.5564 179° South 293 337 7,000 -720 Descending Oakland Center
10:41PM 37.9447 -122.5308 166° South 299 344 6,600 -960 Descending Oakland Center
10:42PM 37.9103 -122.4439 117° Southeast 282 325 5,100 -840 Descending Oakland Center
10:43PM 37.8844 -122.3533 110° East 275 316 4,900 -120 Descending Oakland Center
10:44PM 37.8458 -122.2758 122° Southeast 267 307 4,900 -300 Level Oakland Center
10:45PM 37.7981 -122.2000 129° Southeast 271 312 4,300 -660 Descending Oakland Center
10:47PM 37.7525 -122.1294 129° Southeast 265 305 3,600 -720 Descending Oakland Center
10:48PM 37.7039 -122.0844 144° Southeast 240 276 2,900 -660 Descending Oakland Center
10:49PM 37.6575 -122.1103 204° Southwest 203 234 2,300 -900 Descending Oakland Center
10:50PM 37.6592 -122.1519 273° West 161 185 1,100 -900 Descending Oakland Center
10:51PM 37.6836 -122.1872 311° West 142 163 500 2,820 Descending Oakland Center
10:52PM 37.7103 -122.2283 309° West 132 152 7,000 6,360 Climbing Oakland Center